Weather at Sheridan County Airport

Public forecast

Using degrees Fahrenheit for public forecast. Weather courtesy of forecast.io.

Current aviation weather report (METAR) for Sheridan County Airport

Retrieved 2020/11/30 18:53 UTC (1 hour ago):

KSHR 301853Z AUTO 36008KT 10SM CLR 06/M11 A2991 RMK AO2 SLP164 T00611106

Aviation forecast (TAF) for Sheridan County Airport

Retrieved 2020/11/30 18:36 UTC (1 hour ago):

TAF KSHR 301734Z 3018/0118 VRB03KT P6SM FEW250 FM010200 29010KT P6SM FEW050 WS020/26035KT FM010800 31015KT P6SM VCSH BKN070 WS020/31045KT FM011200 30020G35KT P6SM VCSH SCT025 BKN050